Time;durP1;ratioP1;P1;durP2;ratioP2;P2;SDS_P1;SDS_P2;PMS_P1;PMS_P2;Temp;Humidity;BMP_temperature;BMP_pressure;BME280_temperature;BME280_humidity;BME280_pressure;Samples;Min_cycle;Max_cycle;Signal;HPM_P1;HPM_P2
2022/01/14 00:01:37;;;;;;;3.95;3.05;;;;;;;;;;5068284;28;20086;-61
2022/01/14 00:04:04;;;;;;;4.35;2.88;;;;;;;;;;5073826;28;20020;-48
2022/01/14 00:06:30;;;;;;;4.60;2.75;;;;;;;;;;5073887;28;20382;-47
2022/01/14 00:09:04;;;;;;;4.45;3.30;;;;;;;;;;5069088;28;20028;-50
2022/01/14 00:11:31;;;;;;;4.03;2.90;;;;;;;;;;5074016;28;20472;-52
2022/01/14 00:16:29;;;;;;;4.10;2.90;;;;;;;;;;5063193;28;20029;-49
2022/01/14 00:18:57;;;;;;;3.40;2.30;;;;;;;;;;5052761;28;20673;-49
2022/01/14 00:21:24;;;;;;;4.00;2.67;;;;;;;;;;5053669;28;20029;-49
2022/01/14 00:24:04;;;;;;;4.55;2.72;;;;;;;;;;5055707;28;20029;-48
2022/01/14 00:32:07;;;;;;;4.15;2.63;;;;;;;;;;5070613;28;20786;-55
2022/01/14 00:34:33;;;;;;;4.57;3.13;;;;;;;;;;5073541;28;20119;-49
2022/01/14 00:37:00;;;;;;;4.38;2.80;;;;;;;;;;5053999;28;20155;-51
2022/01/14 00:39:26;;;;;;;4.38;2.90;;;;;;;;;;5055598;28;20036;-49
2022/01/14 00:41:52;;;;;;;3.47;2.63;;;;;;;;;;5055515;28;20033;-50
2022/01/14 00:44:18;;;;;;;4.60;2.58;;;;;;;;;;5057272;28;20059;-47
2022/01/14 00:46:45;;;;;;;4.05;2.90;;;;;;;;;;5072320;28;20377;-48
2022/01/14 00:49:12;;;;;;;4.10;2.97;;;;;;;;;;5073163;28;20032;-50
2022/01/14 00:51:38;;;;;;;4.13;2.90;;;;;;;;;;5056426;28;20045;-63
2022/01/14 00:54:05;;;;;;;3.95;2.60;;;;;;;;;;5035067;28;20023;-50
2022/01/14 00:56:44;;;;;;;4.78;3.30;;;;;;;;;;5065759;28;20070;-51
2022/01/14 00:59:14;;;;;;;3.30;2.65;;;;;;;;;;5055424;28;20031;-49
2022/01/14 01:01:45;;;;;;;4.03;2.70;;;;;;;;;;5072272;28;20508;-52
2022/01/14 01:04:15;;;;;;;4.45;2.80;;;;;;;;;;5072896;28;20033;-50
2022/01/14 01:06:41;;;;;;;5.43;2.85;;;;;;;;;;5071132;28;20029;-54
2022/01/14 01:09:12;;;;;;;4.60;2.90;;;;;;;;;;5072596;28;20028;-49
2022/01/14 01:11:50;;;;;;;11.38;3.10;;;;;;;;;;5052855;28;20033;-63
2022/01/14 01:14:22;;;;;;;3.60;2.95;;;;;;;;;;5057466;28;20381;-50
2022/01/14 01:16:48;;;;;;;4.53;2.90;;;;;;;;;;5071950;28;20032;-49
2022/01/14 01:19:14;;;;;;;4.38;2.83;;;;;;;;;;5072560;28;20028;-49
2022/01/14 01:21:40;;;;;;;4.88;3.47;;;;;;;;;;5034407;28;20052;-62
2022/01/14 01:24:09;;;;;;;3.55;3.10;;;;;;;;;;5062274;28;20133;-49
2022/01/14 01:26:38;;;;;;;4.20;2.90;;;;;;;;;;5071250;28;20029;-47
2022/01/14 01:31:38;;;;;;;4.70;3.17;;;;;;;;;;5052213;28;20356;-62
2022/01/14 01:34:05;;;;;;;3.63;2.58;;;;;;;;;;5052293;28;20067;-50
2022/01/14 01:36:32;;;;;;;4.68;3.08;;;;;;;;;;5060530;28;20078;-50
2022/01/14 01:38:58;;;;;;;4.70;2.92;;;;;;;;;;5070492;28;20052;-47
2022/01/14 01:41:24;;;;;;;5.38;3.40;;;;;;;;;;5072116;28;20381;-48
2022/01/14 01:43:52;;;;;;;6.10;3.20;;;;;;;;;;5071351;28;20094;-47
2022/01/14 01:46:20;;;;;;;3.65;2.50;;;;;;;;;;5059215;28;20032;-49
2022/01/14 01:48:47;;;;;;;4.05;3.03;;;;;;;;;;5039087;28;20100;-47
2022/01/14 01:51:13;;;;;;;5.45;2.95;;;;;;;;;;5051886;28;20052;-48
2022/01/14 01:53:39;;;;;;;4.65;3.13;;;;;;;;;;5051520;28;20057;-64
2022/01/14 01:56:05;;;;;;;4.22;2.97;;;;;;;;;;5051503;28;20029;-47
2022/01/14 01:58:31;;;;;;;4.28;2.92;;;;;;;;;;5053062;28;20033;-48
2022/01/14 02:00:57;;;;;;;3.22;2.63;;;;;;;;;;5070925;28;20527;-48
2022/01/14 02:03:24;;;;;;;4.80;3.10;;;;;;;;;;5071589;28;20039;-48
2022/01/14 02:05:50;;;;;;;3.95;2.80;;;;;;;;;;5053168;28;20039;-51
2022/01/14 02:08:16;;;;;;;6.07;3.90;;;;;;;;;;5068513;28;20119;-54
2022/01/14 02:10:42;;;;;;;5.32;3.13;;;;;;;;;;5050800;28;20482;-63
2022/01/14 02:13:10;;;;;;;4.80;3.10;;;;;;;;;;5052191;28;20025;-47
2022/01/14 02:15:46;;;;;;;4.47;3.03;;;;;;;;;;5071590;28;20028;-54
2022/01/14 02:18:27;;;;;;;5.68;3.35;;;;;;;;;;5070177;28;20020;-49
2022/01/14 02:23:45;;;;;;;4.90;3.33;;;;;;;;;;5065661;28;20255;-49
2022/01/14 02:26:12;;;;;;;4.28;2.90;;;;;;;;;;5052362;28;20457;-51
2022/01/14 02:28:38;;;;;;;5.38;3.35;;;;;;;;;;5067014;28;20107;-48
2022/01/14 02:31:04;;;;;;;5.97;3.70;;;;;;;;;;5050692;28;20037;-48
2022/01/14 02:33:30;;;;;;;3.15;2.67;;;;;;;;;;5051560;28;20033;-48
2022/01/14 02:35:56;;;;;;;4.65;3.10;;;;;;;;;;5050804;28;20028;-50
2022/01/14 02:38:22;;;;;;;4.85;3.10;;;;;;;;;;5051628;28;20087;-48
2022/01/14 02:40:49;;;;;;;5.65;3.38;;;;;;;;;;5062582;28;20521;-48
2022/01/14 02:43:16;;;;;;;3.38;2.25;;;;;;;;;;5054208;28;20033;-48
2022/01/14 02:45:46;;;;;;;3.60;2.92;;;;;;;;;;5050842;28;20025;-51
2022/01/14 02:48:12;;;;;;;4.53;2.72;;;;;;;;;;5071544;28;20031;-48
2022/01/14 02:50:42;;;;;;;5.10;3.55;;;;;;;;;;5071371;28;20033;-47
2022/01/14 02:53:24;;;;;;;3.75;2.83;;;;;;;;;;5071162;28;20131;-47
2022/01/14 02:55:50;;;;;;;;;;;;;;;;;;5071044;28;20086;-47
2022/01/14 02:58:17;;;;;;;5.35;3.00;;;;;;;;;;5053075;28;19909;-47
2022/01/14 03:00:43;;;;;;;4.35;3.20;;;;;;;;;;5051176;28;20051;-62
2022/01/14 03:03:10;;;;;;;4.93;2.85;;;;;;;;;;5070363;28;20351;-47
2022/01/14 03:05:36;;;;;;;3.50;2.72;;;;;;;;;;5071252;28;20373;-47
2022/01/14 03:08:02;;;;;;;6.25;3.03;;;;;;;;;;5070513;28;20024;-47
2022/01/14 03:10:29;;;;;;;5.88;3.38;;;;;;;;;;5069522;28;20040;-47
2022/01/14 03:12:55;;;;;;;4.63;3.25;;;;;;;;;;5070328;28;20021;-47
2022/01/14 03:15:21;;;;;;;3.60;2.72;;;;;;;;;;5071079;28;20021;-47
2022/01/14 03:17:47;;;;;;;4.35;3.10;;;;;;;;;;5054046;28;20033;-48
2022/01/14 03:20:40;;;;;;;5.70;3.70;;;;;;;;;;5050951;28;20029;-48
2022/01/14 03:23:07;;;;;;;4.88;3.45;;;;;;;;;;5050746;28;20044;-48
2022/01/14 03:25:48;;;;;;;4.75;2.95;;;;;;;;;;5070466;28;20059;-48
2022/01/14 03:28:14;;;;;;;5.32;3.00;;;;;;;;;;5071001;28;20085;-49
2022/01/14 03:30:40;;;;;;;3.90;3.28;;;;;;;;;;5074203;28;20044;-48
2022/01/14 03:33:06;;;;;;;4.80;3.35;;;;;;;;;;5055216;28;20060;-48
2022/01/14 03:35:32;;;;;;;6.03;3.30;;;;;;;;;;5053408;28;20108;-56
2022/01/14 03:37:58;;;;;;;3.55;2.70;;;;;;;;;;5070902;28;20528;-47
2022/01/14 03:40:24;;;;;;;4.50;2.90;;;;;;;;;;5074004;28;20030;-47
2022/01/14 03:42:50;;;;;;;4.55;3.20;;;;;;;;;;5068993;28;20489;-63
2022/01/14 03:45:16;;;;;;;4.38;3.15;;;;;;;;;;5054420;28;20025;-48
2022/01/14 03:47:42;;;;;;;5.10;3.25;;;;;;;;;;5068997;28;20071;-60
2022/01/14 03:50:08;;;;;;;3.38;2.75;;;;;;;;;;5073642;28;20060;-51
2022/01/14 03:52:34;;;;;;;4.60;3.22;;;;;;;;;;5055916;28;20031;-47
2022/01/14 03:55:00;;;;;;;4.65;3.30;;;;;;;;;;5073463;28;20459;-47
2022/01/14 03:57:26;;;;;;;5.25;3.05;;;;;;;;;;5074311;28;20059;-47
2022/01/14 03:59:52;;;;;;;4.63;3.53;;;;;;;;;;5073173;28;20055;-47
2022/01/14 04:02:18;;;;;;;5.00;3.80;;;;;;;;;;5062447;28;20389;-49
2022/01/14 04:04:44;;;;;;;4.60;3.72;;;;;;;;;;5053790;28;20017;-63
2022/01/14 04:07:10;;;;;;;3.78;3.10;;;;;;;;;;5058703;28;20025;-48
2022/01/14 04:09:37;;;;;;;5.03;2.85;;;;;;;;;;5074064;28;20112;-48
2022/01/14 04:12:08;;;;;;;5.25;3.30;;;;;;;;;;5073187;28;20120;-48
2022/01/14 04:17:02;;;;;;;5.45;4.28;;;;;;;;;;5063780;28;20385;-48
2022/01/14 04:19:29;;;;;;;4.70;3.60;;;;;;;;;;5053410;28;20025;-48
2022/01/14 04:21:56;;;;;;;4.50;3.15;;;;;;;;;;5052990;28;20094;-49
2022/01/14 04:24:22;;;;;;;4.15;2.97;;;;;;;;;;5065536;28;20355;-49
2022/01/14 04:26:48;;;;;;;4.85;3.20;;;;;;;;;;5072894;28;20424;-53
2022/01/14 04:29:14;;;;;;;3.97;3.05;;;;;;;;;;5072703;28;20056;-47
2022/01/14 04:31:40;;;;;;;4.20;2.83;;;;;;;;;;5062487;28;20037;-50
2022/01/14 04:34:07;;;;;;;4.50;3.53;;;;;;;;;;5052390;28;20031;-52
2022/01/14 04:36:33;;;;;;;4.57;3.20;;;;;;;;;;5070905;28;20082;-48
2022/01/14 04:38:59;;;;;;;4.70;3.35;;;;;;;;;;5071959;28;20048;-48
2022/01/14 04:41:25;;;;;;;3.65;3.17;;;;;;;;;;5071966;28;20029;-48
2022/01/14 04:43:51;;;;;;;4.07;3.15;;;;;;;;;;5072487;28;20389;-48
2022/01/14 04:46:49;;;;;;;4.68;3.03;;;;;;;;;;5070478;28;20028;-50
2022/01/14 04:49:15;;;;;;;4.38;3.15;;;;;;;;;;5053315;28;20501;-47
2022/01/14 04:51:42;;;;;;;3.95;2.97;;;;;;;;;;5053172;28;20041;-47
2022/01/14 04:54:08;;;;;;;5.72;3.22;;;;;;;;;;5052208;28;20826;-51
2022/01/14 04:56:34;;;;;;;4.00;2.95;;;;;;;;;;5053035;28;20025;-47
2022/01/14 04:59:00;;;;;;;4.72;3.40;;;;;;;;;;5052339;28;20036;-48
2022/01/14 05:01:26;;;;;;;3.35;2.80;;;;;;;;;;5053255;28;20072;-48
2022/01/14 05:03:52;;;;;;;4.20;3.30;;;;;;;;;;5052296;28;20134;-50
2022/01/14 05:06:18;;;;;;;4.75;3.53;;;;;;;;;;5053311;28;20037;-48
2022/01/14 05:08:44;;;;;;;5.75;3.58;;;;;;;;;;5072870;28;20025;-47
2022/01/14 05:13:45;;;;;;;5.47;3.38;;;;;;;;;;5052985;28;20434;-62
2022/01/14 05:16:11;;;;;;;4.45;3.53;;;;;;;;;;5052064;28;20021;-48
2022/01/14 05:18:38;;;;;;;4.63;3.65;;;;;;;;;;5052794;28;20037;-47
2022/01/14 05:21:07;;;;;;;4.80;3.42;;;;;;;;;;5051871;28;20374;-49
2022/01/14 05:23:34;;;;;;;4.60;3.03;;;;;;;;;;5061477;28;20021;-55
2022/01/14 05:26:00;;;;;;;4.85;3.60;;;;;;;;;;5056271;28;20108;-51
2022/01/14 05:28:26;;;;;;;4.25;3.40;;;;;;;;;;5060947;28;20027;-47
2022/01/14 05:30:52;;;;;;;5.82;3.47;;;;;;;;;;5058167;28;20477;-47
2022/01/14 05:33:18;;;;;;;4.85;3.78;;;;;;;;;;5062203;28;20074;-48
2022/01/14 05:35:44;;;;;;;5.45;3.28;;;;;;;;;;5060858;28;20025;-48
2022/01/14 05:38:10;;;;;;;5.38;3.50;;;;;;;;;;5059764;28;20054;-48
2022/01/14 05:40:36;;;;;;;5.40;3.22;;;;;;;;;;5062101;28;20469;-49
2022/01/14 05:43:03;;;;;;;4.40;3.53;;;;;;;;;;5059733;28;20047;-51
2022/01/14 05:45:29;;;;;;;4.53;3.30;;;;;;;;;;5060749;28;20040;-49
2022/01/14 05:47:55;;;;;;;5.35;3.15;;;;;;;;;;5058884;28;20043;-53
2022/01/14 05:50:23;;;;;;;4.63;3.42;;;;;;;;;;5061588;28;20028;-48
2022/01/14 05:52:49;;;;;;;5.65;3.55;;;;;;;;;;5058117;28;20028;-62
2022/01/14 05:55:16;;;;;;;5.55;3.97;;;;;;;;;;5059972;28;20037;-47
2022/01/14 05:57:45;;;;;;;10.02;3.47;;;;;;;;;;5059375;28;20081;-49
2022/01/14 06:00:12;;;;;;;4.85;3.38;;;;;;;;;;5060895;28;20108;-51
2022/01/14 06:02:38;;;;;;;4.85;3.53;;;;;;;;;;5070422;28;20078;-48
2022/01/14 06:05:04;;;;;;;4.10;3.28;;;;;;;;;;5071128;28;20030;-53
2022/01/14 06:07:30;;;;;;;5.53;3.20;;;;;;;;;;5071460;28;20033;-49
2022/01/14 06:09:56;;;;;;;4.20;2.83;;;;;;;;;;5068011;28;20078;-50
2022/01/14 06:12:22;;;;;;;4.35;3.20;;;;;;;;;;5052790;28;20020;-52
2022/01/14 06:14:48;;;;;;;4.55;3.22;;;;;;;;;;5070347;28;20031;-65
2022/01/14 06:17:14;;;;;;;6.20;3.85;;;;;;;;;;5071542;28;20063;-48
2022/01/14 06:19:40;;;;;;;5.57;3.13;;;;;;;;;;5065211;28;20035;-52
2022/01/14 06:22:06;;;;;;;5.03;3.50;;;;;;;;;;5065703;28;20378;-53
2022/01/14 06:24:32;;;;;;;5.43;3.50;;;;;;;;;;5064607;28;20023;-52
2022/01/14 06:26:58;;;;;;;9.35;3.42;;;;;;;;;;5052615;28;20021;-51
2022/01/14 06:29:24;;;;;;;5.40;3.10;;;;;;;;;;5070298;28;20020;-54
2022/01/14 06:31:50;;;;;;;4.25;3.08;;;;;;;;;;5069240;28;20503;-60
2022/01/14 06:34:16;;;;;;;4.88;3.42;;;;;;;;;;5051210;28;20033;-52
2022/01/14 06:36:43;;;;;;;6.70;3.45;;;;;;;;;;5051410;28;20029;-48
2022/01/14 06:39:09;;;;;;;4.47;3.20;;;;;;;;;;5050564;28;20037;-52
2022/01/14 06:41:35;;;;;;;5.50;3.40;;;;;;;;;;5051476;28;20064;-48
2022/01/14 06:44:02;;;;;;;5.03;3.10;;;;;;;;;;5069792;28;20389;-50
2022/01/14 06:46:27;;;;;;;4.82;3.05;;;;;;;;;;5053514;28;20425;-46
2022/01/14 06:48:54;;;;;;;5.38;3.78;;;;;;;;;;5070524;28;20056;-50
2022/01/14 06:51:20;;;;;;;6.95;3.08;;;;;;;;;;5071142;28;20063;-47
2022/01/14 06:53:46;;;;;;;7.13;4.00;;;;;;;;;;5054529;28;20449;-46
2022/01/14 06:56:14;;;;;;;7.47;4.43;;;;;;;;;;5050658;28;20025;-50
2022/01/14 06:58:40;;;;;;;6.57;4.03;;;;;;;;;;5057233;28;20029;-45
2022/01/14 07:01:06;;;;;;;11.05;3.78;;;;;;;;;;5054668;28;20029;-45
2022/01/14 07:03:32;;;;;;;11.02;4.05;;;;;;;;;;5071409;28;20104;-48
2022/01/14 07:05:58;;;;;;;9.98;4.35;;;;;;;;;;5059207;28;20021;-50
2022/01/14 07:08:24;;;;;;;14.73;4.45;;;;;;;;;;5056735;28;20108;-56
2022/01/14 07:10:50;;;;;;;15.70;4.47;;;;;;;;;;5049161;28;20072;-54
2022/01/14 07:13:16;;;;;;;13.35;4.03;;;;;;;;;;5064925;28;20025;-50
2022/01/14 07:15:42;;;;;;;11.00;4.07;;;;;;;;;;5054841;28;20037;-51
2022/01/14 07:18:09;;;;;;;7.57;3.80;;;;;;;;;;5054653;28;20116;-48
2022/01/14 07:20:35;;;;;;;7.47;3.45;;;;;;;;;;5054649;28;20036;-48
2022/01/14 07:23:01;;;;;;;11.70;4.35;;;;;;;;;;5071876;28;20031;-48
2022/01/14 07:25:28;;;;;;;10.10;4.10;;;;;;;;;;5061293;28;20024;-49
2022/01/14 07:27:53;;;;;;;7.30;3.88;;;;;;;;;;5074031;28;20535;-62
2022/01/14 07:30:20;;;;;;;9.32;4.03;;;;;;;;;;5074037;28;20143;-50
2022/01/14 07:32:46;;;;;;;8.15;3.67;;;;;;;;;;5039415;28;20378;-48
2022/01/14 07:35:12;;;;;;;8.48;3.80;;;;;;;;;;5053350;28;20477;-52
2022/01/14 07:37:38;;;;;;;12.38;4.10;;;;;;;;;;5054105;28;20044;-51
2022/01/14 07:40:05;;;;;;;10.10;3.60;;;;;;;;;;5053791;28;20029;-46
2022/01/14 07:42:32;;;;;;;10.95;4.47;;;;;;;;;;5054256;28;20039;-47
2022/01/14 07:44:59;;;;;;;12.63;4.30;;;;;;;;;;5035602;28;20418;-47
2022/01/14 07:47:26;;;;;;;12.10;4.03;;;;;;;;;;5054349;28;20035;-48
2022/01/14 07:49:53;;;;;;;12.15;4.18;;;;;;;;;;5036455;28;20393;-49
2022/01/14 07:52:19;;;;;;;6.35;3.50;;;;;;;;;;5066327;28;20036;-53
2022/01/14 07:54:45;;;;;;;7.30;4.15;;;;;;;;;;5068551;28;20036;-47
2022/01/14 07:57:11;;;;;;;7.97;3.63;;;;;;;;;;5053468;28;20087;-47
2022/01/14 07:59:37;;;;;;;6.75;3.53;;;;;;;;;;5056981;28;20030;-48
2022/01/14 08:02:04;;;;;;;6.20;3.28;;;;;;;;;;5068227;28;20031;-50
2022/01/14 08:04:33;;;;;;;8.30;3.30;;;;;;;;;;5062485;28;20386;-49
2022/01/14 08:07:08;;;;;;;7.75;3.53;;;;;;;;;;5055745;28;20100;-47
2022/01/14 08:09:34;;;;;;;5.75;3.30;;;;;;;;;;5060242;28;20024;-50
2022/01/14 08:12:00;;;;;;;6.50;3.17;;;;;;;;;;5064959;28;20051;-50
2022/01/14 08:14:26;;;;;;;6.90;3.33;;;;;;;;;;5072955;28;20078;-49
2022/01/14 08:16:52;;;;;;;5.65;3.28;;;;;;;;;;5072693;28;20017;-47
2022/01/14 08:19:18;;;;;;;4.57;2.85;;;;;;;;;;5071566;28;20028;-50
2022/01/14 08:21:44;;;;;;;7.00;3.72;;;;;;;;;;5071039;28;20029;-49
2022/01/14 08:24:10;;;;;;;5.38;3.00;;;;;;;;;;5069024;28;20039;-47
2022/01/14 08:26:36;;;;;;;4.78;2.78;;;;;;;;;;5073167;28;20024;-47
2022/01/14 08:29:03;;;;;;;4.80;3.30;;;;;;;;;;5072399;28;20461;-50
2022/01/14 08:31:29;;;;;;;5.75;3.45;;;;;;;;;;5070474;28;20044;-46
2022/01/14 08:33:55;;;;;;;5.20;3.08;;;;;;;;;;5057726;28;20021;-59
2022/01/14 08:36:23;;;;;;;6.05;3.90;;;;;;;;;;5072793;28;20071;-48
2022/01/14 08:38:49;;;;;;;4.57;2.92;;;;;;;;;;5073500;28;20053;-52
2022/01/14 08:41:15;;;;;;;4.55;3.20;;;;;;;;;;5053516;28;20029;-47
2022/01/14 08:43:42;;;;;;;5.57;3.53;;;;;;;;;;5053159;28;20060;-51
2022/01/14 08:46:08;;;;;;;7.32;3.20;;;;;;;;;;5052633;28;20013;-46
2022/01/14 08:48:34;;;;;;;4.60;3.30;;;;;;;;;;5061783;28;20462;-46
2022/01/14 08:51:00;;;;;;;4.57;2.70;;;;;;;;;;5072247;28;20389;-51
2022/01/14 08:53:26;;;;;;;5.65;3.90;;;;;;;;;;5054663;28;20400;-52
2022/01/14 08:55:52;;;;;;;4.82;3.08;;;;;;;;;;5053526;28;20021;-48
2022/01/14 08:58:18;;;;;;;4.85;3.25;;;;;;;;;;5058784;28;20027;-51
2022/01/14 09:00:45;;;;;;;5.35;3.38;;;;;;;;;;5068150;28;20048;-50
2022/01/14 09:03:11;;;;;;;5.53;3.55;;;;;;;;;;5053412;28;20067;-47
2022/01/14 09:05:37;;;;;;;4.45;3.40;;;;;;;;;;5070004;28;20041;-49
2022/01/14 09:08:03;;;;;;;4.78;3.30;;;;;;;;;;5071911;28;20082;-48
2022/01/14 09:10:29;;;;;;;4.47;3.03;;;;;;;;;;5070257;28;20466;-47
2022/01/14 09:12:55;;;;;;;3.95;3.03;;;;;;;;;;5052730;28;20104;-47
2022/01/14 09:15:21;;;;;;;6.32;4.03;;;;;;;;;;5066880;28;20466;-47
2022/01/14 09:17:47;;;;;;;4.95;3.28;;;;;;;;;;5053056;28;20033;-48
2022/01/14 09:20:13;;;;;;;5.30;3.00;;;;;;;;;;5051724;28;20375;-49
2022/01/14 09:22:47;;;;;;;7.57;3.10;;;;;;;;;;5052350;28;20025;-54
2022/01/14 09:25:13;;;;;;;4.38;3.03;;;;;;;;;;5067091;28;20116;-51
2022/01/14 09:27:39;;;;;;;6.55;3.50;;;;;;;;;;5052220;28;20056;-46
2022/01/14 09:30:05;;;;;;;5.57;3.40;;;;;;;;;;5069554;28;20048;-53
2022/01/14 09:32:31;;;;;;;5.88;3.58;;;;;;;;;;5064782;28;20096;-48
2022/01/14 09:34:58;;;;;;;6.30;3.85;;;;;;;;;;5063024;28;20147;-61
2022/01/14 09:37:24;;;;;;;5.15;3.42;;;;;;;;;;5069560;28;20049;-48
2022/01/14 09:39:50;;;;;;;3.95;3.00;;;;;;;;;;5072074;28;20070;-50
2022/01/14 09:42:16;;;;;;;3.85;2.78;;;;;;;;;;5062304;28;20457;-49
2022/01/14 09:44:43;;;;;;;4.78;3.30;;;;;;;;;;5062674;28;20037;-50
2022/01/14 09:47:09;;;;;;;4.32;2.90;;;;;;;;;;5061563;28;20092;-52
2022/01/14 09:49:37;;;;;;;4.60;2.50;;;;;;;;;;5060834;28;20020;-50
2022/01/14 09:52:03;;;;;;;4.50;3.17;;;;;;;;;;5050592;28;20040;-52
2022/01/14 09:54:30;;;;;;;4.65;3.30;;;;;;;;;;5051575;28;20036;-49
2022/01/14 09:56:56;;;;;;;4.18;3.10;;;;;;;;;;5056370;28;20029;-52
2022/01/14 09:59:22;;;;;;;4.80;3.10;;;;;;;;;;5051025;28;20024;-50
2022/01/14 10:01:49;;;;;;;4.05;3.13;;;;;;;;;;5054895;28;20029;-55
2022/01/14 10:04:17;;;;;;;4.93;3.45;;;;;;;;;;5051117;28;20021;-48
2022/01/14 10:06:47;;;;;;;4.25;2.88;;;;;;;;;;5054428;28;20056;-49
2022/01/14 10:09:19;;;;;;;5.30;3.05;;;;;;;;;;5052093;28;20393;-49
2022/01/14 10:11:58;;;;;;;4.82;2.95;;;;;;;;;;5051571;28;20374;-48
2022/01/14 10:14:24;;;;;;;4.45;3.38;;;;;;;;;;5052460;28;20496;-57
2022/01/14 10:16:57;;;;;;;4.18;3.03;;;;;;;;;;5051683;28;20115;-49
2022/01/14 10:19:23;;;;;;;6.18;3.83;;;;;;;;;;5052166;28;20136;-49
2022/01/14 10:21:50;;;;;;;3.85;3.42;;;;;;;;;;5052432;28;20138;-52
2022/01/14 10:24:16;;;;;;;4.68;3.25;;;;;;;;;;5055108;28;20017;-48
2022/01/14 10:26:46;;;;;;;4.88;3.17;;;;;;;;;;5053165;28;20033;-48
2022/01/14 10:29:12;;;;;;;4.82;3.78;;;;;;;;;;5050962;28;20034;-48
2022/01/14 10:31:39;;;;;;;5.35;3.15;;;;;;;;;;5051830;28;20033;-50
2022/01/14 10:34:23;;;;;;;5.55;3.50;;;;;;;;;;5051771;28;20036;-55
2022/01/14 10:36:50;;;;;;;5.97;4.00;;;;;;;;;;5053598;28;20022;-52
2022/01/14 10:39:20;;;;;;;4.70;3.08;;;;;;;;;;5054557;28;20032;-52
2022/01/14 10:41:46;;;;;;;5.35;4.22;;;;;;;;;;5059696;28;20031;-52
2022/01/14 10:44:45;;;;;;;5.68;3.60;;;;;;;;;;5054984;28;20017;-50
2022/01/14 10:47:15;;;;;;;4.90;3.70;;;;;;;;;;5025403;28;20036;-56
2022/01/14 10:49:42;;;;;;;4.93;3.20;;;;;;;;;;5053893;28;20070;-50
2022/01/14 10:52:19;;;;;;;5.60;3.45;;;;;;;;;;5057737;28;20036;-54
2022/01/14 10:54:47;;;;;;;5.78;3.58;;;;;;;;;;5055374;28;20021;-49
2022/01/14 10:57:20;;;;;;;6.18;4.57;;;;;;;;;;5053301;28;20075;-56
2022/01/14 10:59:47;;;;;;;4.65;3.20;;;;;;;;;;5058960;28;20029;-52
2022/01/14 11:02:32;;;;;;;5.03;3.63;;;;;;;;;;5063130;28;20051;-55
2022/01/14 11:05:04;;;;;;;4.85;3.58;;;;;;;;;;5057225;28;20031;-53
2022/01/14 11:07:31;;;;;;;5.20;3.20;;;;;;;;;;5063589;28;20028;-51
2022/01/14 11:09:57;;;;;;;5.82;3.60;;;;;;;;;;5054673;28;20090;-50
2022/01/14 11:12:24;;;;;;;6.40;4.00;;;;;;;;;;5053502;28;20565;-51
2022/01/14 11:14:51;;;;;;;5.88;3.72;;;;;;;;;;5044167;28;20028;-49
2022/01/14 11:17:17;;;;;;;6.32;3.40;;;;;;;;;;5054400;28;20093;-60
2022/01/14 11:19:46;;;;;;;6.82;3.20;;;;;;;;;;5057201;28;20024;-54
2022/01/14 11:24:57;;;;;;;6.97;4.05;;;;;;;;;;5057923;28;20032;-52
2022/01/14 11:27:24;;;;;;;6.90;3.83;;;;;;;;;;5055365;28;20021;-52
2022/01/14 11:29:57;;;;;;;6.78;3.63;;;;;;;;;;5060428;28;20527;-52
2022/01/14 11:32:23;;;;;;;6.25;3.95;;;;;;;;;;5070463;28;20186;-48
2022/01/14 11:34:50;;;;;;;5.70;3.45;;;;;;;;;;5064599;28;20039;-51
2022/01/14 11:37:30;;;;;;;5.18;4.03;;;;;;;;;;5073740;28;20043;-49
2022/01/14 11:39:58;;;;;;;5.40;3.80;;;;;;;;;;5074099;28;20025;-50
2022/01/14 11:42:43;;;;;;;7.93;4.43;;;;;;;;;;5073896;28;20149;-51
2022/01/14 11:45:13;;;;;;;5.18;3.80;;;;;;;;;;5065085;28;20130;-52
2022/01/14 11:47:41;;;;;;;6.13;3.83;;;;;;;;;;5062637;28;20532;-47
2022/01/14 11:50:27;;;;;;;4.93;3.50;;;;;;;;;;5065286;28;20041;-57
2022/01/14 11:52:53;;;;;;;5.50;3.92;;;;;;;;;;5074260;28;20393;-50
2022/01/14 11:55:22;;;;;;;6.32;3.50;;;;;;;;;;5070860;28;20036;-47
2022/01/14 11:57:52;;;;;;;6.80;4.05;;;;;;;;;;5073672;28;20496;-47
2022/01/14 12:00:27;;;;;;;4.75;3.50;;;;;;;;;;5056704;28;20027;-47
2022/01/14 12:02:56;;;;;;;8.25;3.60;;;;;;;;;;5053846;28;20021;-47
2022/01/14 12:05:29;;;;;;;6.63;3.70;;;;;;;;;;5069640;28;20064;-48
2022/01/14 12:08:02;;;;;;;7.97;3.55;;;;;;;;;;5066598;28;20029;-52
2022/01/14 12:10:38;;;;;;;6.10;3.78;;;;;;;;;;5072470;28;20354;-51
2022/01/14 12:13:25;;;;;;;5.15;3.63;;;;;;;;;;5073294;28;20029;-58
2022/01/14 12:16:00;;;;;;;5.63;3.33;;;;;;;;;;5054093;28;20079;-53
2022/01/14 12:18:44;;;;;;;5.57;3.55;;;;;;;;;;5053212;28;20028;-51
2022/01/14 12:21:10;;;;;;;5.55;3.63;;;;;;;;;;5052887;28;20045;-51
2022/01/14 12:23:37;;;;;;;4.68;3.40;;;;;;;;;;5064100;28;20104;-47
2022/01/14 12:26:13;;;;;;;5.43;3.13;;;;;;;;;;5053196;28;20025;-49
2022/01/14 12:28:40;;;;;;;7.43;3.53;;;;;;;;;;5053719;28;20028;-47
2022/01/14 12:31:06;;;;;;;4.15;3.63;;;;;;;;;;5053284;28;20043;-58
2022/01/14 12:34:01;;;;;;;5.53;3.85;;;;;;;;;;5057024;28;20074;-47
2022/01/14 12:36:27;;;;;;;4.68;3.33;;;;;;;;;;5051437;28;20119;-47
2022/01/14 12:38:53;;;;;;;7.25;4.15;;;;;;;;;;5068962;28;20585;-47
2022/01/14 12:41:20;;;;;;;5.35;3.67;;;;;;;;;;5072186;28;20134;-48
2022/01/14 12:43:50;;;;;;;6.53;3.63;;;;;;;;;;5066860;28;20050;-48
2022/01/14 12:46:53;;;;;;;5.80;4.10;;;;;;;;;;5052480;28;20021;-47
2022/01/14 12:49:16;;;;;;;5.53;3.65;;;;;;;;;;5058704;28;20138;-50
2022/01/14 12:51:42;;;;;;;5.40;3.58;;;;;;;;;;5073060;28;20032;-47
2022/01/14 12:54:09;;;;;;;5.25;3.72;;;;;;;;;;5063655;28;20035;-58
2022/01/14 12:56:37;;;;;;;5.13;4.03;;;;;;;;;;5053065;28;20025;-47
2022/01/14 12:59:09;;;;;;;5.53;3.85;;;;;;;;;;5053094;28;20032;-47
2022/01/14 13:01:40;;;;;;;4.85;3.55;;;;;;;;;;5034644;28;20020;-47
2022/01/14 13:04:08;;;;;;;5.40;4.20;;;;;;;;;;5053092;28;20119;-47
2022/01/14 13:06:49;;;;;;;5.28;3.70;;;;;;;;;;5034737;28;20029;-47
2022/01/14 13:09:19;;;;;;;5.50;3.43;;;;;;;;;;5052192;28;20049;-47
2022/01/14 13:11:49;;;;;;;4.35;3.08;;;;;;;;;;5052820;28;20288;-47
2022/01/14 13:14:18;;;;;;;7.45;3.92;;;;;;;;;;5053187;28;20067;-48
2022/01/14 13:16:46;;;;;;;5.35;3.40;;;;;;;;;;5052955;28;20029;-47
2022/01/14 13:19:21;;;;;;;7.65;4.85;;;;;;;;;;5051870;28;20024;-48
2022/01/14 13:21:47;;;;;;;5.25;3.85;;;;;;;;;;5034560;28;20025;-47
2022/01/14 13:24:32;;;;;;;5.25;3.97;;;;;;;;;;5061522;28;20373;-47
2022/01/14 13:27:03;;;;;;;5.80;4.18;;;;;;;;;;5072356;28;20054;-47
2022/01/14 13:29:36;;;;;;;4.78;3.70;;;;;;;;;;5071451;28;20028;-47
2022/01/14 13:32:03;;;;;;;5.72;3.47;;;;;;;;;;5067904;28;20058;-48
2022/01/14 13:34:30;;;;;;;5.75;4.15;;;;;;;;;;5063373;28;20108;-47
2022/01/14 13:36:56;;;;;;;5.35;4.05;;;;;;;;;;5052269;28;20049;-47
2022/01/14 13:39:22;;;;;;;5.55;3.88;;;;;;;;;;5060425;28;20089;-46
2022/01/14 13:41:48;;;;;;;4.60;3.88;;;;;;;;;;5069987;28;20021;-46
2022/01/14 13:44:18;;;;;;;7.15;3.45;;;;;;;;;;5059144;28;20052;-46
2022/01/14 13:46:46;;;;;;;5.25;3.55;;;;;;;;;;5055171;28;20021;-46
2022/01/14 13:49:18;;;;;;;5.30;3.88;;;;;;;;;;5051170;28;20021;-56
2022/01/14 13:51:44;;;;;;;4.50;3.67;;;;;;;;;;5052198;28;20028;-48
2022/01/14 13:54:11;;;;;;;4.07;3.45;;;;;;;;;;5057055;28;20024;-58
2022/01/14 13:56:37;;;;;;;5.43;3.50;;;;;;;;;;5071836;28;20034;-52
2022/01/14 13:59:04;;;;;;;5.05;3.65;;;;;;;;;;5071842;28;20032;-49
2022/01/14 14:01:31;;;;;;;5.43;3.70;;;;;;;;;;5071128;28;20024;-50
2022/01/14 14:04:14;;;;;;;6.75;4.25;;;;;;;;;;5067956;28;20021;-46
2022/01/14 14:06:44;;;;;;;6.40;3.70;;;;;;;;;;5051838;28;20064;-48
2022/01/14 14:09:23;;;;;;;8.00;3.90;;;;;;;;;;5051040;28;20063;-56
2022/01/14 14:12:11;;;;;;;5.85;4.35;;;;;;;;;;5051772;28;20025;-46
2022/01/14 14:17:21;;;;;;;5.20;3.72;;;;;;;;;;5070874;28;20027;-50
2022/01/14 14:19:55;;;;;;;6.07;3.63;;;;;;;;;;5053840;28;20115;-46
2022/01/14 14:22:24;;;;;;;4.78;3.60;;;;;;;;;;5062168;28;20037;-46
2022/01/14 14:24:56;;;;;;;8.05;4.07;;;;;;;;;;5066711;28;20081;-46
2022/01/14 14:27:23;;;;;;;5.30;3.88;;;;;;;;;;5062147;28;20053;-49
2022/01/14 14:29:50;;;;;;;5.25;3.85;;;;;;;;;;5052252;28;20078;-48
2022/01/14 14:32:29;;;;;;;4.70;3.65;;;;;;;;;;5031322;28;20505;-46
2022/01/14 14:34:56;;;;;;;5.43;3.70;;;;;;;;;;5052262;28;20028;-46
2022/01/14 14:37:22;;;;;;;6.15;4.10;;;;;;;;;;5049991;28;20037;-46
2022/01/14 14:39:48;;;;;;;7.45;4.57;;;;;;;;;;5051356;28;20100;-46
2022/01/14 14:42:14;;;;;;;9.00;4.78;;;;;;;;;;5049813;28;20032;-48
2022/01/14 14:44:40;;;;;;;6.13;4.05;;;;;;;;;;5051785;28;20037;-47
2022/01/14 14:47:07;;;;;;;5.00;3.55;;;;;;;;;;5049862;28;20013;-46
2022/01/14 14:49:34;;;;;;;4.95;3.70;;;;;;;;;;5052886;28;20062;-46
2022/01/14 14:52:01;;;;;;;5.68;4.22;;;;;;;;;;5049771;28;20037;-48
2022/01/14 14:54:27;;;;;;;6.03;4.05;;;;;;;;;;5050281;28;20021;-45
2022/01/14 14:56:53;;;;;;;5.97;4.25;;;;;;;;;;5049859;28;20009;-46
2022/01/14 14:59:19;;;;;;;6.72;3.75;;;;;;;;;;5030866;28;20043;-50
2022/01/14 15:01:45;;;;;;;7.18;4.05;;;;;;;;;;5048412;28;20021;-58
2022/01/14 15:04:11;;;;;;;5.22;3.55;;;;;;;;;;5047228;28;20024;-49
2022/01/14 15:06:37;;;;;;;6.97;4.43;;;;;;;;;;5054157;28;20020;-48
2022/01/14 15:09:04;;;;;;;4.43;3.50;;;;;;;;;;5050114;28;20025;-52
2022/01/14 15:11:30;;;;;;;8.23;4.10;;;;;;;;;;5050002;28;20579;-45
2022/01/14 15:13:58;;;;;;;5.57;3.97;;;;;;;;;;5038617;28;20025;-45